Time;durP1;ratioP1;P1;durP2;ratioP2;P2;SDS_P1;SDS_P2;PMS_P1;PMS_P2;Temp;Humidity;BMP_temperature;BMP_pressure;BME280_temperature;BME280_humidity;BME280_pressure;Samples;Min_cycle;Max_cycle;Signal;HPM_P1;HPM_P2
2023/03/30 00:02:21;;;;;;;7.38;4.50;;;;;;;;;;5084624;28;20567;-69
2023/03/30 00:04:49;;;;;;;9.02;3.78;;;;;;;;;;5084575;28;20385;-69
2023/03/30 00:07:15;;;;;;;6.43;3.58;;;;;;;;;;5084421;28;20212;-69
2023/03/30 00:09:42;;;;;;;8.40;2.90;;;;;;;;;;5084187;28;20562;-68
2023/03/30 00:12:08;;;;;;;11.85;3.47;;;;;;;;;;5084182;28;20204;-68
2023/03/30 00:14:36;;;;;;;7.47;3.47;;;;;;;;;;5084224;28;20200;-68
2023/03/30 00:17:02;;;;;;;6.70;3.30;;;;;;;;;;5084320;28;20228;-68
2023/03/30 00:19:28;;;;;;;8.07;3.20;;;;;;;;;;5084484;28;20367;-68
2023/03/30 00:21:56;;;;;;;6.85;3.00;;;;;;;;;;5084021;28;20208;-68
2023/03/30 00:24:23;;;;;;;8.40;3.45;;;;;;;;;;5084156;28;20223;-68
2023/03/30 00:26:49;;;;;;;5.88;3.10;;;;;;;;;;5083935;28;20200;-68
2023/03/30 00:29:16;;;;;;;10.43;3.20;;;;;;;;;;5083818;28;20446;-68
2023/03/30 00:31:42;;;;;;;5.47;2.30;;;;;;;;;;5084321;28;20499;-69
2023/03/30 00:34:09;;;;;;;14.10;3.47;;;;;;;;;;5084248;28;20206;-69
2023/03/30 00:36:36;;;;;;;10.90;3.17;;;;;;;;;;5084047;28;20200;-68
2023/03/30 00:39:05;;;;;;;6.53;3.17;;;;;;;;;;5083031;28;20201;-68
2023/03/30 00:41:31;;;;;;;6.53;3.53;;;;;;;;;;5081075;28;20267;-68
2023/03/30 00:43:59;;;;;;;10.77;4.13;;;;;;;;;;5083582;28;20211;-68
2023/03/30 00:46:25;;;;;;;10.80;4.05;;;;;;;;;;5077359;28;20224;-68
2023/03/30 00:48:51;;;;;;;9.25;4.20;;;;;;;;;;5083316;28;20204;-68
2023/03/30 00:51:18;;;;;;;8.20;3.67;;;;;;;;;;5083139;28;20367;-68
2023/03/30 00:53:46;;;;;;;5.80;4.07;;;;;;;;;;5083355;28;20204;-68
2023/03/30 00:56:15;;;;;;;6.30;3.55;;;;;;;;;;5083326;28;20212;-68
2023/03/30 00:58:43;;;;;;;10.27;3.72;;;;;;;;;;5083107;28;20189;-68
2023/03/30 01:01:11;;;;;;;10.82;4.60;;;;;;;;;;5081051;28;20216;-68
2023/03/30 01:03:42;;;;;;;9.27;4.32;;;;;;;;;;5081315;28;20204;-68
2023/03/30 01:06:09;;;;;;;7.88;3.75;;;;;;;;;;5079176;28;20192;-68
2023/03/30 01:08:36;;;;;;;8.88;4.15;;;;;;;;;;5079352;28;20196;-68
2023/03/30 01:11:04;;;;;;;11.15;4.65;;;;;;;;;;5079563;28;20258;-68
2023/03/30 01:13:33;;;;;;;11.27;4.20;;;;;;;;;;5077670;28;20196;-68
2023/03/30 01:16:06;;;;;;;11.02;4.30;;;;;;;;;;5082639;28;20234;-68
2023/03/30 01:18:38;;;;;;;12.88;5.43;;;;;;;;;;5082817;28;20219;-68
2023/03/30 01:21:11;;;;;;;11.20;5.38;;;;;;;;;;5066882;28;20352;-68
2023/03/30 01:23:46;;;;;;;9.50;4.70;;;;;;;;;;5082902;28;20476;-68
2023/03/30 01:26:31;;;;;;;12.88;4.40;;;;;;;;;;5075764;28;20226;-68
2023/03/30 01:29:02;;;;;;;11.40;4.75;;;;;;;;;;5082907;28;20220;-68
2023/03/30 01:31:47;;;;;;;13.13;5.85;;;;;;;;;;5082704;28;20196;-68
2023/03/30 01:34:19;;;;;;;15.95;6.38;;;;;;;;;;5075702;28;20196;-68
2023/03/30 01:37:02;;;;;;;7.90;4.63;;;;;;;;;;5082553;28;20196;-68
2023/03/30 01:39:43;;;;;;;13.70;4.88;;;;;;;;;;5082838;28;20527;-68
2023/03/30 01:42:15;;;;;;;13.07;5.00;;;;;;;;;;5074780;28;20200;-68
2023/03/30 01:44:44;;;;;;;6.72;4.20;;;;;;;;;;5082687;28;20204;-69
2023/03/30 01:47:15;;;;;;;7.68;4.45;;;;;;;;;;5082734;28;20188;-69
2023/03/30 01:49:43;;;;;;;10.35;4.43;;;;;;;;;;5082720;28;20226;-69
2023/03/30 01:52:13;;;;;;;12.48;3.75;;;;;;;;;;5081150;28;20223;-69
2023/03/30 01:54:42;;;;;;;9.38;4.40;;;;;;;;;;5082669;28;20196;-68
2023/03/30 01:57:12;;;;;;;11.25;4.10;;;;;;;;;;5074634;28;20430;-68
2023/03/30 01:59:43;;;;;;;9.25;3.95;;;;;;;;;;5082202;28;20204;-69
2023/03/30 02:02:11;;;;;;;9.73;4.10;;;;;;;;;;5074524;28;20425;-69
2023/03/30 02:04:39;;;;;;;12.93;4.00;;;;;;;;;;5082199;28;20196;-69
2023/03/30 02:07:07;;;;;;;6.65;3.95;;;;;;;;;;5082309;28;20377;-69
2023/03/30 02:09:35;;;;;;;8.82;3.67;;;;;;;;;;5082424;28;20534;-69
2023/03/30 02:12:02;;;;;;;14.45;4.20;;;;;;;;;;5082043;28;20254;-69
2023/03/30 02:14:30;;;;;;;9.82;3.55;;;;;;;;;;5082326;28;20241;-69
2023/03/30 02:17:00;;;;;;;8.30;4.20;;;;;;;;;;5082160;28;20200;-69
2023/03/30 02:19:27;;;;;;;6.68;3.30;;;;;;;;;;5082315;28;20709;-69
2023/03/30 02:21:53;;;;;;;12.18;4.28;;;;;;;;;;5082252;28;20202;-69
2023/03/30 02:24:22;;;;;;;11.38;4.03;;;;;;;;;;5082132;28;20196;-68
2023/03/30 02:26:50;;;;;;;14.23;4.32;;;;;;;;;;5081711;28;20196;-68
2023/03/30 02:29:16;;;;;;;15.60;4.05;;;;;;;;;;5081981;28;20574;-68
2023/03/30 02:31:43;;;;;;;9.40;4.30;;;;;;;;;;5082093;28;20196;-68
2023/03/30 02:34:14;;;;;;;10.13;4.03;;;;;;;;;;5082254;28;20196;-68
2023/03/30 02:36:48;;;;;;;15.02;3.85;;;;;;;;;;5081830;28;20255;-68
2023/03/30 02:39:21;;;;;;;11.57;4.50;;;;;;;;;;5074635;28;20196;-68
2023/03/30 02:42:05;;;;;;;10.63;3.67;;;;;;;;;;5081596;28;20227;-68
2023/03/30 02:44:36;;;;;;;12.32;3.60;;;;;;;;;;5081887;28;20200;-68
2023/03/30 02:47:06;;;;;;;6.63;3.92;;;;;;;;;;5081858;28;20238;-68
2023/03/30 02:49:39;;;;;;;10.93;3.63;;;;;;;;;;5081895;28;20207;-69
2023/03/30 02:52:09;;;;;;;7.85;3.25;;;;;;;;;;5081642;28;20503;-69
2023/03/30 02:54:42;;;;;;;8.23;3.28;;;;;;;;;;5082042;28;20263;-69
2023/03/30 02:57:10;;;;;;;10.27;3.22;;;;;;;;;;5081752;28;20196;-69
2023/03/30 02:59:39;;;;;;;9.95;3.00;;;;;;;;;;5081956;28;20560;-69
2023/03/30 03:02:09;;;;;;;13.25;3.13;;;;;;;;;;5082260;28;20227;-69
2023/03/30 03:04:37;;;;;;;9.77;3.13;;;;;;;;;;5085560;28;20195;-68
2023/03/30 03:07:03;;;;;;;13.18;3.03;;;;;;;;;;5085478;28;20208;-68
2023/03/30 03:09:30;;;;;;;14.93;3.42;;;;;;;;;;5085954;28;20196;-68
2023/03/30 03:11:57;;;;;;;11.90;3.33;;;;;;;;;;5085279;28;20404;-69
2023/03/30 03:14:25;;;;;;;11.25;3.20;;;;;;;;;;5085571;28;20204;-69
2023/03/30 03:16:51;;;;;;;10.70;3.20;;;;;;;;;;5085045;28;20196;-68
2023/03/30 03:19:17;;;;;;;13.50;3.20;;;;;;;;;;5085198;28;20204;-68
2023/03/30 03:21:45;;;;;;;12.30;3.83;;;;;;;;;;5085302;28;20196;-68
2023/03/30 03:24:16;;;;;;;14.43;3.58;;;;;;;;;;5068978;28;20196;-68
2023/03/30 03:26:42;;;;;;;8.98;3.13;;;;;;;;;;5085251;28;20263;-68
2023/03/30 03:29:08;;;;;;;9.60;3.30;;;;;;;;;;5085009;28;20254;-68
2023/03/30 03:31:34;;;;;;;17.55;3.03;;;;;;;;;;5084943;28;20220;-68
2023/03/30 03:34:01;;;;;;;17.98;3.70;;;;;;;;;;5085099;28;20204;-68
2023/03/30 03:36:27;;;;;;;15.15;3.03;;;;;;;;;;5085105;28;20201;-68
2023/03/30 03:38:55;;;;;;;12.38;3.63;;;;;;;;;;5084945;28;20250;-68
2023/03/30 03:41:21;;;;;;;18.55;3.17;;;;;;;;;;5084949;28;20196;-68
2023/03/30 03:43:47;;;;;;;10.63;3.00;;;;;;;;;;5084618;28;20196;-68
2023/03/30 03:46:14;;;;;;;14.77;3.42;;;;;;;;;;5084837;28;20196;-68
2023/03/30 03:48:40;;;;;;;11.32;3.13;;;;;;;;;;5085122;28;20220;-68
2023/03/30 03:51:07;;;;;;;14.35;3.55;;;;;;;;;;5084590;28;20216;-68
2023/03/30 03:53:33;;;;;;;13.13;3.45;;;;;;;;;;5084675;28;20214;-68
2023/03/30 03:56:02;;;;;;;24.13;9.73;;;;;;;;;;5084720;28;20562;-68
2023/03/30 03:58:28;;;;;;;11.35;3.60;;;;;;;;;;5084723;28;20234;-68
2023/03/30 04:00:57;;;;;;;16.17;4.55;;;;;;;;;;5084512;28;20200;-68
2023/03/30 04:03:23;;;;;;;18.45;4.90;;;;;;;;;;5084881;28;20242;-68
2023/03/30 04:05:50;;;;;;;14.15;5.07;;;;;;;;;;5084451;28;20200;-68
2023/03/30 04:08:16;;;;;;;17.55;4.45;;;;;;;;;;5084443;28;20196;-68
2023/03/30 04:10:43;;;;;;;10.50;3.20;;;;;;;;;;5084484;28;20275;-68
2023/03/30 04:13:11;;;;;;;21.50;3.97;;;;;;;;;;5083921;28;20242;-68
2023/03/30 04:15:37;;;;;;;14.60;3.75;;;;;;;;;;5083653;28;20427;-68
2023/03/30 04:18:04;;;;;;;14.43;3.95;;;;;;;;;;5084689;28;20224;-68
2023/03/30 04:20:30;;;;;;;17.05;3.83;;;;;;;;;;5084530;28;20492;-68
2023/03/30 04:23:00;;;;;;;16.38;4.10;;;;;;;;;;5084346;28;20200;-67
2023/03/30 04:25:27;;;;;;;13.32;3.55;;;;;;;;;;5084240;28;20249;-67
2023/03/30 04:27:54;;;;;;;18.00;3.85;;;;;;;;;;5083872;28;20223;-67
2023/03/30 04:30:22;;;;;;;17.60;4.88;;;;;;;;;;5084227;28;20220;-67
2023/03/30 04:33:01;;;;;;;15.13;3.60;;;;;;;;;;5084069;28;20496;-67
2023/03/30 04:35:27;;;;;;;9.30;3.72;;;;;;;;;;5077488;28;20228;-67
2023/03/30 04:37:54;;;;;;;12.48;4.18;;;;;;;;;;5083879;28;20201;-67
2023/03/30 04:40:20;;;;;;;16.73;4.63;;;;;;;;;;5083649;28;20395;-67
2023/03/30 04:42:48;;;;;;;12.75;4.32;;;;;;;;;;5083889;28;20220;-67
2023/03/30 04:45:15;;;;;;;10.23;4.10;;;;;;;;;;5083741;28;20204;-68
2023/03/30 04:47:43;;;;;;;12.45;4.03;;;;;;;;;;5083746;28;20439;-68
2023/03/30 04:50:10;;;;;;;13.85;4.82;;;;;;;;;;5083507;28;20254;-68
2023/03/30 04:52:36;;;;;;;19.13;4.60;;;;;;;;;;5083462;28;20196;-69
2023/03/30 04:55:02;;;;;;;9.23;4.20;;;;;;;;;;5083775;28;20511;-69
2023/03/30 04:57:28;;;;;;;16.05;4.22;;;;;;;;;;5083911;28;20282;-69
2023/03/30 04:59:55;;;;;;;11.65;4.20;;;;;;;;;;5083591;28;20508;-68
2023/03/30 05:02:21;;;;;;;11.15;4.72;;;;;;;;;;5082971;28;20200;-68
2023/03/30 05:04:49;;;;;;;13.57;4.82;;;;;;;;;;5083340;28;20512;-68
2023/03/30 05:07:15;;;;;;;18.10;4.47;;;;;;;;;;5083305;28;20196;-68
2023/03/30 05:09:41;;;;;;;17.50;4.85;;;;;;;;;;5083133;28;20264;-68
2023/03/30 05:12:07;;;;;;;18.60;4.47;;;;;;;;;;5082761;28;20216;-68
2023/03/30 05:14:34;;;;;;;11.80;4.38;;;;;;;;;;5083315;28;20204;-69
2023/03/30 05:17:00;;;;;;;16.40;4.75;;;;;;;;;;5082909;28;20200;-69
2023/03/30 05:19:26;;;;;;;7.45;4.25;;;;;;;;;;5083176;28;20207;-69
2023/03/30 05:21:54;;;;;;;15.82;4.63;;;;;;;;;;5082734;28;20204;-69
2023/03/30 05:24:20;;;;;;;11.63;4.43;;;;;;;;;;5083117;28;20196;-69
2023/03/30 05:26:46;;;;;;;11.18;4.60;;;;;;;;;;5082720;28;20192;-69
2023/03/30 05:29:13;;;;;;;17.98;5.63;;;;;;;;;;5082825;28;20221;-69
2023/03/30 05:31:39;;;;;;;22.20;5.82;;;;;;;;;;5082401;28;20221;-69
2023/03/30 05:34:06;;;;;;;18.13;5.32;;;;;;;;;;5082846;28;20201;-69
2023/03/30 05:36:34;;;;;;;26.20;6.00;;;;;;;;;;5082524;28;20400;-69
2023/03/30 05:39:03;;;;;;;19.67;6.47;;;;;;;;;;5082410;28;20200;-69
2023/03/30 05:41:30;;;;;;;16.60;6.45;;;;;;;;;;5082808;28;20199;-69
2023/03/30 05:43:56;;;;;;;15.50;6.03;;;;;;;;;;5082447;28;20242;-69
2023/03/30 05:46:23;;;;;;;22.20;6.00;;;;;;;;;;5082413;28;20197;-69
2023/03/30 05:48:49;;;;;;;14.70;5.78;;;;;;;;;;5082522;28;20200;-69
2023/03/30 05:51:15;;;;;;;18.73;6.20;;;;;;;;;;5082162;28;20217;-68
2023/03/30 05:53:43;;;;;;;14.20;5.90;;;;;;;;;;5082184;28;20197;-68
2023/03/30 05:56:11;;;;;;;19.08;5.80;;;;;;;;;;5082526;28;20212;-68
2023/03/30 05:58:38;;;;;;;16.67;5.57;;;;;;;;;;5082152;28;20204;-68
2023/03/30 06:01:04;;;;;;;15.52;5.53;;;;;;;;;;5082398;28;20197;-68
2023/03/30 06:03:31;;;;;;;22.58;5.57;;;;;;;;;;5082104;28;20196;-69
2023/03/30 06:05:57;;;;;;;13.50;5.25;;;;;;;;;;5081984;28;20310;-69
2023/03/30 06:08:25;;;;;;;21.27;5.07;;;;;;;;;;5082094;28;20211;-69
2023/03/30 06:10:52;;;;;;;19.80;5.22;;;;;;;;;;5082113;28;20216;-68
2023/03/30 06:13:19;;;;;;;24.90;6.07;;;;;;;;;;5082125;28;20196;-69
2023/03/30 06:15:46;;;;;;;21.52;5.18;;;;;;;;;;5082541;28;20542;-69
2023/03/30 06:18:12;;;;;;;16.63;4.75;;;;;;;;;;5082019;28;20254;-69
2023/03/30 06:20:39;;;;;;;19.23;5.15;;;;;;;;;;5082364;28;20500;-69
2023/03/30 06:23:05;;;;;;;22.50;5.32;;;;;;;;;;5081922;28;20207;-69
2023/03/30 06:25:31;;;;;;;14.52;5.78;;;;;;;;;;5082065;28;20425;-69
2023/03/30 06:27:57;;;;;;;20.33;6.07;;;;;;;;;;5081844;28;20566;-69
2023/03/30 06:30:25;;;;;;;17.73;5.57;;;;;;;;;;5081775;28;20500;-69
2023/03/30 06:32:52;;;;;;;17.63;5.88;;;;;;;;;;5081497;28;20216;-69
2023/03/30 06:35:18;;;;;;;13.10;5.18;;;;;;;;;;5081972;28;20428;-69
2023/03/30 06:37:44;;;;;;;20.88;5.20;;;;;;;;;;5081175;28;20426;-69
2023/03/30 06:40:12;;;;;;;19.70;5.80;;;;;;;;;;5081732;28;20511;-69
2023/03/30 06:42:38;;;;;;;18.52;5.90;;;;;;;;;;5081582;28;20193;-69
2023/03/30 06:45:05;;;;;;;16.20;6.07;;;;;;;;;;5081571;28;20499;-69
2023/03/30 06:47:33;;;;;;;19.38;6.28;;;;;;;;;;5081426;28;20399;-69
2023/03/30 06:49:59;;;;;;;11.68;5.40;;;;;;;;;;5081883;28;20204;-69
2023/03/30 06:52:25;;;;;;;18.55;5.70;;;;;;;;;;5081252;28;20457;-69
2023/03/30 06:54:52;;;;;;;14.82;5.15;;;;;;;;;;5081551;28;20500;-69
2023/03/30 06:57:18;;;;;;;13.07;4.78;;;;;;;;;;5081849;28;20404;-69
2023/03/30 06:59:44;;;;;;;19.30;5.43;;;;;;;;;;5081362;28;20219;-69
2023/03/30 07:02:12;;;;;;;18.92;5.53;;;;;;;;;;5081111;28;20228;-69
2023/03/30 07:04:40;;;;;;;17.88;5.80;;;;;;;;;;5081679;28;20200;-69
2023/03/30 07:07:07;;;;;;;16.13;5.18;;;;;;;;;;5081433;28;20200;-69
2023/03/30 07:09:33;;;;;;;19.00;5.72;;;;;;;;;;5081387;28;20227;-69
2023/03/30 07:11:59;;;;;;;15.07;5.38;;;;;;;;;;5080990;28;20227;-69
2023/03/30 07:14:26;;;;;;;16.15;5.38;;;;;;;;;;5081349;28;20263;-69
2023/03/30 07:16:52;;;;;;;16.63;4.40;;;;;;;;;;5081374;28;20204;-69
2023/03/30 07:19:19;;;;;;;12.50;4.88;;;;;;;;;;5081487;28;20527;-69
2023/03/30 07:21:46;;;;;;;16.77;4.45;;;;;;;;;;5081347;28;20208;-69
2023/03/30 07:24:13;;;;;;;18.50;4.70;;;;;;;;;;5081329;28;20512;-69
2023/03/30 07:26:39;;;;;;;18.98;4.60;;;;;;;;;;5081395;28;20211;-69
2023/03/30 07:29:06;;;;;;;14.57;5.10;;;;;;;;;;5080950;28;20266;-69
2023/03/30 07:31:32;;;;;;;16.85;3.95;;;;;;;;;;5081206;28;20442;-69
2023/03/30 07:33:59;;;;;;;22.00;4.97;;;;;;;;;;5081913;28;20220;-69
2023/03/30 07:36:25;;;;;;;20.88;4.43;;;;;;;;;;5081339;28;20224;-69
2023/03/30 07:38:52;;;;;;;15.77;3.95;;;;;;;;;;5081560;28;20203;-69
2023/03/30 07:41:19;;;;;;;10.07;3.83;;;;;;;;;;5081233;28;20200;-69
2023/03/30 07:43:45;;;;;;;17.38;4.30;;;;;;;;;;5081122;28;20208;-69
2023/03/30 07:46:11;;;;;;;8.75;3.58;;;;;;;;;;5081289;28;20201;-69
2023/03/30 07:48:38;;;;;;;13.98;3.75;;;;;;;;;;5081734;28;20271;-69
2023/03/30 07:51:05;;;;;;;9.93;3.60;;;;;;;;;;5084765;28;20224;-69
2023/03/30 07:53:32;;;;;;;14.27;4.07;;;;;;;;;;5084750;28;20196;-69
2023/03/30 07:55:59;;;;;;;14.50;3.70;;;;;;;;;;5084778;28;20515;-69
2023/03/30 07:58:26;;;;;;;12.70;3.95;;;;;;;;;;5084610;28;20204;-69
2023/03/30 08:00:53;;;;;;;10.85;3.22;;;;;;;;;;5084755;28;20434;-69
2023/03/30 08:03:20;;;;;;;10.05;3.92;;;;;;;;;;5084237;28;20197;-69
2023/03/30 08:05:51;;;;;;;13.25;3.20;;;;;;;;;;5084545;28;20196;-69
2023/03/30 08:08:17;;;;;;;11.93;4.13;;;;;;;;;;5084329;28;20207;-69
2023/03/30 08:10:45;;;;;;;12.77;3.70;;;;;;;;;;5084602;28;20484;-69
2023/03/30 08:13:12;;;;;;;10.85;3.80;;;;;;;;;;5084224;28;20284;-70
2023/03/30 08:15:39;;;;;;;10.15;3.67;;;;;;;;;;5084490;28;20200;-69
2023/03/30 08:18:06;;;;;;;9.80;3.67;;;;;;;;;;5084204;28;20207;-69
2023/03/30 08:20:33;;;;;;;14.05;3.95;;;;;;;;;;5084469;28;20390;-70
2023/03/30 08:22:59;;;;;;;16.98;4.38;;;;;;;;;;5084056;28;20275;-69
2023/03/30 08:25:26;;;;;;;10.93;4.30;;;;;;;;;;5083747;28;20211;-69
2023/03/30 08:27:52;;;;;;;17.45;4.55;;;;;;;;;;5084019;28;20219;-69
2023/03/30 08:30:20;;;;;;;11.35;4.35;;;;;;;;;;5083884;28;20196;-69
2023/03/30 08:32:47;;;;;;;15.30;4.22;;;;;;;;;;5083911;28;20223;-69
2023/03/30 08:35:13;;;;;;;11.32;4.03;;;;;;;;;;5083896;28;20203;-69
2023/03/30 08:37:40;;;;;;;10.13;3.83;;;;;;;;;;5083834;28;20238;-69
2023/03/30 08:40:09;;;;;;;10.77;3.63;;;;;;;;;;5083609;28;20270;-69
2023/03/30 08:42:44;;;;;;;10.77;3.97;;;;;;;;;;5083673;28;20500;-69
2023/03/30 08:45:11;;;;;;;10.15;3.42;;;;;;;;;;5083608;28;20535;-69
2023/03/30 08:47:40;;;;;;;13.82;3.55;;;;;;;;;;5083730;28;20206;-69
2023/03/30 08:50:08;;;;;;;9.73;3.90;;;;;;;;;;5083430;28;20200;-69
2023/03/30 08:52:36;;;;;;;8.38;3.47;;;;;;;;;;5083125;28;20426;-69
2023/03/30 08:55:02;;;;;;;12.02;4.18;;;;;;;;;;5083594;28;20201;-69
2023/03/30 08:57:36;;;;;;;10.27;5.13;;;;;;;;;;5083582;28;20208;-69
2023/03/30 09:00:10;;;;;;;8.18;4.25;;;;;;;;;;5082972;28;20199;-68
2023/03/30 09:02:41;;;;;;;11.90;4.50;;;;;;;;;;5075865;28;20215;-68
2023/03/30 09:05:14;;;;;;;13.48;4.25;;;;;;;;;;5083418;28;20224;-69
2023/03/30 09:07:45;;;;;;;18.52;5.15;;;;;;;;;;5083681;28;20276;-69
2023/03/30 09:10:13;;;;;;;11.02;4.88;;;;;;;;;;5083303;28;20207;-69
2023/03/30 09:12:41;;;;;;;11.27;4.10;;;;;;;;;;5083153;28;20213;-69
2023/03/30 09:15:11;;;;;;;10.23;4.47;;;;;;;;;;5083378;28;20445;-69
2023/03/30 09:17:39;;;;;;;7.30;3.42;;;;;;;;;;5083166;28;20197;-69
2023/03/30 09:20:08;;;;;;;10.35;3.60;;;;;;;;;;5083335;28;20200;-61
2023/03/30 09:22:37;;;;;;;6.72;2.88;;;;;;;;;;5082531;28;20192;-60
2023/03/30 09:25:06;;;;;;;10.00;3.35;;;;;;;;;;5082903;28;20222;-60
2023/03/30 09:27:40;;;;;;;12.07;3.22;;;;;;;;;;5074367;28;20246;-60
2023/03/30 09:30:15;;;;;;;10.68;3.30;;;;;;;;;;5082751;28;20522;-60
2023/03/30 09:32:46;;;;;;;10.90;3.63;;;;;;;;;;5075484;28;20253;-62
2023/03/30 09:35:14;;;;;;;12.95;3.92;;;;;;;;;;5082809;28;20259;-61
2023/03/30 09:37:42;;;;;;;14.45;3.72;;;;;;;;;;5082680;28;20201;-61
2023/03/30 09:40:18;;;;;;;9.10;3.58;;;;;;;;;;5082470;28;20247;-61
2023/03/30 09:42:46;;;;;;;9.10;3.17;;;;;;;;;;5082608;28;20192;-62
2023/03/30 09:45:14;;;;;;;11.40;3.42;;;;;;;;;;5082305;28;20268;-61
2023/03/30 09:47:41;;;;;;;9.32;3.33;;;;;;;;;;5082371;28;20234;-60
2023/03/30 09:50:08;;;;;;;8.20;3.05;;;;;;;;;;5082268;28;20204;-61
2023/03/30 09:52:36;;;;;;;12.10;3.25;;;;;;;;;;5082046;28;20204;-60
2023/03/30 09:55:18;;;;;;;12.35;2.50;;;;;;;;;;5082706;28;20204;-61
2023/03/30 09:57:44;;;;;;;12.35;3.13;;;;;;;;;;5075684;28;20196;-60
2023/03/30 10:00:23;;;;;;;10.05;2.67;;;;;;;;;;5082321;28;20208;-61
2023/03/30 10:02:55;;;;;;;8.77;2.65;;;;;;;;;;5082180;28;20208;-60
2023/03/30 10:05:21;;;;;;;17.90;8.13;;;;;;;;;;5082546;28;20200;-61
2023/03/30 10:07:52;;;;;;;11.23;2.65;;;;;;;;;;5082276;28;20318;-61
2023/03/30 10:10:27;;;;;;;6.20;2.50;;;;;;;;;;5082322;28;20371;-61
2023/03/30 10:12:54;;;;;;;10.68;2.42;;;;;;;;;;5079180;28;20220;-61
2023/03/30 10:15:22;;;;;;;6.20;2.10;;;;;;;;;;5081534;28;20247;-61
2023/03/30 10:17:50;;;;;;;6.43;2.80;;;;;;;;;;5081572;28;20208;-61
2023/03/30 10:20:21;;;;;;;6.50;2.20;;;;;;;;;;5075443;28;20282;-60
2023/03/30 10:22:52;;;;;;;9.13;2.30;;;;;;;;;;5079330;28;20197;-60
2023/03/30 10:25:20;;;;;;;4.43;2.22;;;;;;;;;;5075287;28;20548;-60
2023/03/30 10:27:49;;;;;;;3.85;2.00;;;;;;;;;;5074570;28;20233;-59
2023/03/30 10:30:18;;;;;;;4.35;2.40;;;;;;;;;;5075137;28;20205;-58
2023/03/30 10:32:45;;;;;;;3.70;2.20;;;;;;;;;;5075541;28;20224;-59
2023/03/30 10:35:11;;;;;;;6.47;2.10;;;;;;;;;;5076267;28;20216;-59
2023/03/30 10:37:38;;;;;;;2.00;1.90;;;;;;;;;;5071384;28;20430;-60
2023/03/30 10:40:11;;;;;;;6.35;2.25;;;;;;;;;;5079332;28;20220;-59
2023/03/30 10:42:37;;;;;;;10.02;2.65;;;;;;;;;;5079326;28;20246;-59
2023/03/30 10:45:06;;;;;;;18.23;9.55;;;;;;;;;;5079203;28;20219;-59
2023/03/30 10:47:37;;;;;;;5.90;3.20;;;;;;;;;;5079448;28;20208;-59
2023/03/30 10:50:09;;;;;;;3.88;2.60;;;;;;;;;;5079971;28;20493;-59
2023/03/30 10:52:40;;;;;;;4.18;2.83;;;;;;;;;;5076854;28;20265;-59
2023/03/30 10:55:11;;;;;;;7.35;2.97;;;;;;;;;;5073459;28;20508;-59
2023/03/30 10:57:43;;;;;;;7.78;3.22;;;;;;;;;;5071729;28;20557;-58
2023/03/30 11:00:19;;;;;;;4.07;2.88;;;;;;;;;;5070583;28;20271;-58
2023/03/30 11:02:56;;;;;;;3.40;2.38;;;;;;;;;;5073706;28;20434;-59
2023/03/30 11:05:25;;;;;;;3.33;2.40;;;;;;;;;;5072434;28;20235;-59
2023/03/30 11:07:54;;;;;;;4.80;2.20;;;;;;;;;;5072581;28;20284;-59
2023/03/30 11:10:27;;;;;;;5.05;2.47;;;;;;;;;;5072351;28;20209;-59
2023/03/30 11:12:55;;;;;;;8.20;2.95;;;;;;;;;;5070649;28;20224;-59
2023/03/30 11:15:26;;;;;;;4.85;2.70;;;;;;;;;;5069314;28;20208;-59
2023/03/30 11:17:55;;;;;;;3.58;2.80;;;;;;;;;;5076503;28;20369;-59
2023/03/30 11:20:26;;;;;;;8.77;3.00;;;;;;;;;;5072995;28;20476;-61
2023/03/30 11:22:55;;;;;;;7.18;2.75;;;;;;;;;;5079921;28;20205;-59
2023/03/30 11:25:23;;;;;;;4.97;2.92;;;;;;;;;;5083210;28;20279;-60
2023/03/30 11:27:52;;;;;;;7.20;3.08;;;;;;;;;;5082658;28;20424;-60
2023/03/30 11:30:21;;;;;;;8.80;2.78;;;;;;;;;;5082050;28;20216;-60
2023/03/30 11:32:52;;;;;;;5.93;2.83;;;;;;;;;;5075119;28;20262;-59
2023/03/30 11:35:20;;;;;;;7.68;3.00;;;;;;;;;;5082677;28;20208;-60
2023/03/30 11:37:49;;;;;;;6.13;2.40;;;;;;;;;;5080805;28;20208;-60
2023/03/30 11:40:17;;;;;;;5.90;2.30;;;;;;;;;;5079888;28;20442;-59
2023/03/30 11:42:44;;;;;;;5.40;2.22;;;;;;;;;;5074528;28;20499;-60
2023/03/30 11:45:17;;;;;;;5.18;2.33;;;;;;;;;;5082033;28;20220;-60
2023/03/30 11:47:51;;;;;;;5.25;2.65;;;;;;;;;;5076607;28;20239;-59
2023/03/30 11:50:38;;;;;;;7.57;2.60;;;;;;;;;;5079281;28;20580;-60
2023/03/30 11:53:16;;;;;;;4.70;2.65;;;;;;;;;;5074601;28;20553;-60
2023/03/30 11:55:56;;;;;;;6.40;2.80;;;;;;;;;;5075215;28;20208;-60
2023/03/30 11:58:26;;;;;;;7.57;2.75;;;;;;;;;;5079316;28;20219;-60
2023/03/30 12:01:00;;;;;;;5.78;2.30;;;;;;;;;;5081900;28;20212;-60
2023/03/30 12:03:34;;;;;;;6.82;2.28;;;;;;;;;;5081606;28;20413;-60
2023/03/30 12:06:05;;;;;;;6.72;3.00;;;;;;;;;;5082695;28;20216;-60
2023/03/30 12:08:43;;;;;;;6.22;2.58;;;;;;;;;;5082469;28;20251;-60
2023/03/30 12:11:13;;;;;;;7.00;2.70;;;;;;;;;;5082561;28;20219;-60
2023/03/30 12:13:40;;;;;;;10.98;3.53;;;;;;;;;;5081914;28;20232;-60
2023/03/30 12:16:08;;;;;;;6.15;2.63;;;;;;;;;;5082167;28;20212;-60
2023/03/30 12:18:38;;;;;;;5.28;3.03;;;;;;;;;;5081825;28;20212;-59
2023/03/30 12:21:13;;;;;;;7.15;2.83;;;;;;;;;;5082111;28;20219;-60
2023/03/30 12:23:45;;;;;;;11.27;3.20;;;;;;;;;;5080527;28;20204;-60
2023/03/30 12:26:19;;;;;;;7.03;2.90;;;;;;;;;;5067205;28;20393;-60
2023/03/30 12:28:46;;;;;;;7.07;2.88;;;;;;;;;;5075630;28;20266;-59
2023/03/30 12:31:13;;;;;;;9.98;2.97;;;;;;;;;;5078981;28;20243;-60
2023/03/30 12:33:45;;;;;;;7.15;2.92;;;;;;;;;;5081045;28;20314;-59
2023/03/30 12:36:24;;;;;;;12.25;3.28;;;;;;;;;;5080877;28;20212;-60
2023/03/30 12:38:56;;;;;;;7.80;2.80;;;;;;;;;;5079685;28;20554;-59
2023/03/30 12:41:23;;;;;;;6.72;3.05;;;;;;;;;;5080257;28;20409;-60
2023/03/30 12:44:02;;;;;;;6.65;2.95;;;;;;;;;;5073583;28;20513;-60
2023/03/30 12:46:34;;;;;;;8.75;2.97;;;;;;;;;;5081807;28;20216;-60
2023/03/30 12:49:04;;;;;;;6.05;2.80;;;;;;;;;;5082258;28;20211;-61
2023/03/30 12:51:39;;;;;;;3.88;2.53;;;;;;;;;;5083117;28;20201;-61
2023/03/30 12:54:13;;;;;;;5.85;2.83;;;;;;;;;;5083200;28;20223;-60
2023/03/30 12:56:47;;;;;;;5.45;2.10;;;;;;;;;;5083145;28;20351;-62
2023/03/30 12:59:42;;;;;;;8.73;2.90;;;;;;;;;;5080450;28;20246;-60
2023/03/30 13:02:18;;;;;;;4.88;2.42;;;;;;;;;;5075294;28;20516;-60
2023/03/30 13:04:47;;;;;;;4.88;2.40;;;;;;;;;;5081323;28;20276;-61
2023/03/30 13:07:15;;;;;;;4.63;2.30;;;;;;;;;;5083071;28;20245;-61
2023/03/30 13:09:53;;;;;;;7.57;2.63;;;;;;;;;;5082806;28;20201;-61
2023/03/30 13:12:39;;;;;;;8.32;2.67;;;;;;;;;;5082910;28;20516;-61
2023/03/30 13:15:20;;;;;;;6.90;2.58;;;;;;;;;;5076942;28;20273;-61
2023/03/30 13:17:57;;;;;;;8.25;2.70;;;;;;;;;;5077636;28;20196;-61
2023/03/30 13:20:28;;;;;;;4.38;2.15;;;;;;;;;;5082525;28;20200;-60
2023/03/30 13:23:04;;;;;;;4.32;2.20;;;;;;;;;;5082363;28;20266;-61
2023/03/30 13:25:38;;;;;;;4.63;2.40;;;;;;;;;;5082470;28;20395;-61
2023/03/30 13:28:20;;;;;;;8.98;2.70;;;;;;;;;;5082433;28;20220;-60
2023/03/30 13:30:46;;;;;;;3.95;2.00;;;;;;;;;;5082319;28;20221;-61
2023/03/30 13:33:15;;;;;;;5.97;2.35;;;;;;;;;;5082043;28;20219;-61
2023/03/30 13:35:48;;;;;;;8.55;3.00;;;;;;;;;;5082220;28;20284;-61
2023/03/30 13:38:23;;;;;;;6.00;2.17;;;;;;;;;;5082434;28;20204;-61
2023/03/30 13:40:56;;;;;;;4.93;2.22;;;;;;;;;;5074384;28;20288;-61
2023/03/30 13:43:26;;;;;;;4.07;1.98;;;;;;;;;;5082143;28;20227;-61
2023/03/30 13:45:56;;;;;;;5.85;2.50;;;;;;;;;;5074644;28;20526;-60
2023/03/30 13:48:32;;;;;;;5.53;2.50;;;;;;;;;;5081766;28;20196;-61
2023/03/30 13:50:59;;;;;;;6.60;2.50;;;;;;;;;;5082480;28;20298;-60
2023/03/30 13:53:26;;;;;;;7.57;2.53;;;;;;;;;;5081617;28;20303;-60
2023/03/30 13:55:55;;;;;;;6.28;2.63;;;;;;;;;;5082198;28;20386;-61
2023/03/30 13:58:23;;;;;;;6.55;2.10;;;;;;;;;;5081795;28;20402;-60
2023/03/30 14:00:50;;;;;;;6.72;2.40;;;;;;;;;;5073557;28;20196;-61
2023/03/30 14:03:27;;;;;;;3.80;2.22;;;;;;;;;;5081783;28;20366;-60
2023/03/30 14:05:54;;;;;;;2.40;1.77;;;;;;;;;;5074325;28;20530;-60
2023/03/30 14:08:20;;;;;;;7.47;1.98;;;;;;;;;;5081736;28;20200;-61
2023/03/30 14:10:46;;;;;;;4.13;1.55;;;;;;;;;;5081275;28;20258;-60
2023/03/30 14:13:15;;;;;;;5.60;1.77;;;;;;;;;;5071063;28;20281;-60
2023/03/30 14:15:41;;;;;;;3.13;1.58;;;;;;;;;;5077337;28;20238;-60
2023/03/30 14:18:10;;;;;;;4.00;2.10;;;;;;;;;;5078749;28;20570;-59
2023/03/30 14:20:45;;;;;;;7.22;1.73;;;;;;;;;;5079047;28;20504;-59
2023/03/30 14:23:13;;;;;;;3.63;1.77;;;;;;;;;;5078846;28;20278;-59
2023/03/30 14:25:40;;;;;;;3.80;1.55;;;;;;;;;;5079366;28;20220;-60
2023/03/30 14:28:11;;;;;;;2.50;1.20;;;;;;;;;;5077860;28;20232;-60
2023/03/30 14:30:47;;;;;;;3.15;1.30;;;;;;;;;;5078791;28;20212;-60
2023/03/30 14:33:15;;;;;;;4.38;1.60;;;;;;;;;;5078938;28;20249;-59
2023/03/30 14:35:43;;;;;;;4.68;1.60;;;;;;;;;;5079036;28;20448;-59
2023/03/30 14:38:13;;;;;;;3.85;1.90;;;;;;;;;;5072847;28;20423;-59
2023/03/30 14:40:40;;;;;;;1.73;1.52;;;;;;;;;;5067560;28;20519;-60
2023/03/30 14:43:06;;;;;;;3.65;1.63;;;;;;;;;;5072358;28;20219;-59
2023/03/30 14:45:33;;;;;;;4.07;1.55;;;;;;;;;;5078502;28;20212;-59
2023/03/30 14:48:01;;;;;;;3.83;1.50;;;;;;;;;;5079102;28;20223;-59